logo
Search for airport 
image banner adimage banner adimage banner ad
image banner ad

EPKL - Krasocin K/Wloszczowy

Located in , Poland

ICAO - , IATA -

Data provided by Airmate  

General information

Coordinates: N50°53'54" E20°7'43"
Elevation is 820 feet MSL.
 
Rated:
View ratings:
[VIEW]
View others Airports in Swietokrzyskie

Operational data

Special qualification required
Current time UTC:
Current local time:
Weather at : EPTM - Tomaszow Mazowiecki ( 76 km )
TAF: TAF EPTM 081100Z 0812/0824 12008KT 2000 BR OVC006 BECMG 0815/0817 1500 BR OVC004
View NOTAMs / SUP AIP / TFR affecting this airport [VIEW]
Communications frequencies: [VIEW]

Runways:

RWY identifierQFULength (ft)Width (ft)SurfaceLDA (ft)
133527115GRAS3527
313527115GRAS3527

Airport contact information

Address: Poland

Satellite view of EPKL